createdAt,value
2018-09-18T00:02:02.484Z,17.70
2018-09-18T00:04:30.747Z,17.70
2018-09-18T00:06:58.778Z,17.70
2018-09-18T00:09:26.821Z,17.60
2018-09-18T00:11:54.871Z,17.60
2018-09-18T00:14:22.918Z,17.50
2018-09-18T00:16:50.962Z,17.50
2018-09-18T00:19:19.006Z,17.50
2018-09-18T00:21:47.079Z,17.50
2018-09-18T00:24:15.151Z,17.50
2018-09-18T00:26:43.185Z,17.60
2018-09-18T00:29:11.366Z,17.60
2018-09-18T00:31:39.391Z,17.60
2018-09-18T00:34:07.457Z,17.60
2018-09-18T00:36:35.491Z,17.60
2018-09-18T00:39:04.131Z,17.70
2018-09-18T00:41:32.164Z,17.70
2018-09-18T00:44:00.492Z,17.80
2018-09-18T00:46:28.515Z,17.80
2018-09-18T00:48:56.569Z,17.90
2018-09-18T00:51:24.591Z,18.00
2018-09-18T00:53:52.623Z,18.00
2018-09-18T00:56:20.669Z,17.90
2018-09-18T00:58:48.708Z,17.80
2018-09-18T01:01:16.742Z,17.70
2018-09-18T01:03:44.789Z,17.50
2018-09-18T01:06:12.986Z,17.40
2018-09-18T01:08:41.204Z,17.30
2018-09-18T01:11:09.222Z,17.10
2018-09-18T01:13:37.259Z,17.00
2018-09-18T01:16:05.287Z,16.80
2018-09-18T01:18:40.529Z,16.60
2018-09-18T01:21:08.990Z,16.60
2018-09-18T01:23:37.167Z,16.50
2018-09-18T01:26:05.343Z,16.50
2018-09-18T01:28:33.666Z,16.40
2018-09-18T01:31:01.738Z,16.30
2018-09-18T01:33:30.209Z,16.30
2018-09-18T01:35:58.246Z,16.20
2018-09-18T01:38:26.301Z,16.00
2018-09-18T01:40:54.891Z,15.90
2018-09-18T01:43:22.934Z,15.80
2018-09-18T01:45:51.139Z,15.70
2018-09-18T01:48:19.528Z,15.60
2018-09-18T01:50:47.575Z,15.50
2018-09-18T01:53:15.620Z,15.40
2018-09-18T01:55:43.653Z,15.40
2018-09-18T01:58:11.708Z,15.30
2018-09-18T02:00:39.748Z,15.30
2018-09-18T02:03:07.838Z,15.20
2018-09-18T02:05:35.888Z,15.10
2018-09-18T02:08:03.947Z,15.00
2018-09-18T02:10:33.038Z,15.00
2018-09-18T02:13:01.079Z,14.90
2018-09-18T02:15:29.136Z,14.80
2018-09-18T02:17:57.189Z,14.70
2018-09-18T02:20:25.292Z,14.70
2018-09-18T02:22:53.336Z,14.60
2018-09-18T02:25:21.379Z,14.60
2018-09-18T02:27:49.418Z,14.60
2018-09-18T02:30:17.460Z,14.50
2018-09-18T02:32:45.511Z,14.50
2018-09-18T02:35:13.551Z,14.60
2018-09-18T02:37:41.631Z,14.60
2018-09-18T02:40:09.689Z,14.70
2018-09-18T02:42:37.751Z,14.70
2018-09-18T02:45:05.812Z,14.60
2018-09-18T02:47:33.900Z,14.60
2018-09-18T02:50:01.960Z,14.50
2018-09-18T02:52:30.005Z,14.50
2018-09-18T02:54:58.063Z,14.40
2018-09-18T02:57:26.724Z,14.40
2018-09-18T02:59:54.739Z,14.40
2018-09-18T03:02:22.863Z,14.40
2018-09-18T03:04:50.917Z,14.30
2018-09-18T03:07:18.972Z,14.30
2018-09-18T03:09:47.036Z,14.40
2018-09-18T03:12:15.080Z,14.40
2018-09-18T03:14:43.142Z,14.40
2018-09-18T03:17:11.195Z,14.40
2018-09-18T03:19:39.247Z,14.30
2018-09-18T03:22:07.296Z,14.30
2018-09-18T03:24:35.352Z,14.30
2018-09-18T03:27:03.493Z,14.30
2018-09-18T03:29:31.567Z,14.30
2018-09-18T03:31:59.611Z,14.30
2018-09-18T03:34:27.668Z,14.30
2018-09-18T03:36:56.056Z,14.30
2018-09-18T03:39:24.142Z,14.30
2018-09-18T03:41:52.177Z,14.30
2018-09-18T03:44:20.225Z,14.30
2018-09-18T03:46:48.258Z,14.30
2018-09-18T03:49:16.319Z,14.30
2018-09-18T03:51:44.400Z,14.30
2018-09-18T03:54:12.463Z,14.20
2018-09-18T03:56:40.529Z,14.20
2018-09-18T03:59:08.597Z,14.10
2018-09-18T04:01:36.642Z,14.10
2018-09-18T04:04:04.704Z,14.00
2018-09-18T04:06:32.744Z,14.00
2018-09-18T04:09:00.819Z,13.90
2018-09-18T04:11:28.971Z,13.90
2018-09-18T04:13:57.017Z,13.90
2018-09-18T04:16:25.064Z,13.90
2018-09-18T04:18:53.116Z,13.90
2018-09-18T04:21:25.422Z,13.90
2018-09-18T04:23:53.482Z,13.80
2018-09-18T04:26:21.531Z,13.80
2018-09-18T04:28:49.576Z,13.80
2018-09-18T04:31:17.630Z,13.80
2018-09-18T04:33:45.906Z,13.80
2018-09-18T04:36:13.965Z,13.80
2018-09-18T04:38:42.006Z,13.80
2018-09-18T04:41:10.133Z,14.00
2018-09-18T04:43:38.185Z,13.90
2018-09-18T04:46:06.396Z,13.90
2018-09-18T04:48:35.380Z,13.90
2018-09-18T04:51:03.432Z,13.80
2018-09-18T04:53:31.498Z,13.80
2018-09-18T04:55:59.552Z,13.70
2018-09-18T04:58:28.640Z,13.80
2018-09-18T05:00:56.700Z,13.90
2018-09-18T05:03:24.773Z,13.90
2018-09-18T05:05:52.848Z,13.90
2018-09-18T05:08:20.882Z,14.10
2018-09-18T05:10:48.924Z,14.30
2018-09-18T05:13:17.076Z,14.40
2018-09-18T05:15:45.158Z,14.50
2018-09-18T05:18:14.014Z,14.60
2018-09-18T05:20:42.132Z,14.80
2018-09-18T05:23:10.161Z,14.90
2018-09-18T05:25:38.353Z,15.00
2018-09-18T05:28:06.420Z,15.10
2018-09-18T05:30:34.487Z,15.20
2018-09-18T05:33:02.559Z,15.50
2018-09-18T05:35:30.614Z,16.10
2018-09-18T05:37:58.663Z,17.10
2018-09-18T05:40:26.728Z,18.50
2018-09-18T05:42:54.767Z,20.00
2018-09-18T05:45:23.042Z,21.00
2018-09-18T05:47:51.099Z,21.80
2018-09-18T05:50:19.208Z,21.90
2018-09-18T05:52:47.251Z,21.40
2018-09-18T05:55:15.296Z,20.90
2018-09-18T05:57:43.392Z,20.60
2018-09-18T06:00:11.452Z,20.40
2018-09-18T06:02:39.593Z,20.00
2018-09-18T06:05:07.670Z,19.80
2018-09-18T06:07:35.707Z,19.70
2018-09-18T06:10:03.747Z,19.80
2018-09-18T06:12:31.913Z,20.00
2018-09-18T06:15:00.184Z,20.30
2018-09-18T06:17:28.676Z,20.70
2018-09-18T06:19:57.019Z,21.20
2018-09-18T06:22:25.063Z,21.40
2018-09-18T06:24:53.099Z,21.70
2018-09-18T06:27:21.247Z,22.00
2018-09-18T06:29:49.279Z,22.10
2018-09-18T06:32:17.344Z,22.20
2018-09-18T06:34:45.383Z,22.20
2018-09-18T06:37:13.423Z,22.30
2018-09-18T06:39:41.451Z,22.60
2018-09-18T06:42:09.501Z,23.00
2018-09-18T06:44:37.537Z,23.50
2018-09-18T06:47:05.899Z,24.00
2018-09-18T06:49:33.919Z,24.40
2018-09-18T06:52:01.969Z,24.60
2018-09-18T06:54:30.044Z,24.80
2018-09-18T06:56:58.060Z,25.00
2018-09-18T06:59:26.083Z,25.20
2018-09-18T07:01:54.220Z,25.40
2018-09-18T07:04:22.258Z,25.70
2018-09-18T07:06:50.306Z,26.00
2018-09-18T07:09:18.354Z,26.40
2018-09-18T07:11:46.396Z,26.80
2018-09-18T07:14:14.439Z,27.00
2018-09-18T07:16:42.483Z,27.00
2018-09-18T07:19:10.527Z,27.30
2018-09-18T07:21:38.586Z,27.70
2018-09-18T07:24:06.716Z,27.90
2018-09-18T07:26:34.788Z,28.20
2018-09-18T07:29:02.835Z,28.70
2018-09-18T07:31:30.983Z,29.40
2018-09-18T07:33:59.039Z,29.80
2018-09-18T07:36:27.176Z,29.80
2018-09-18T07:38:55.231Z,29.70
2018-09-18T07:41:23.404Z,29.30
2018-09-18T07:43:51.429Z,29.30
2018-09-18T07:46:19.495Z,29.30
2018-09-18T07:48:47.535Z,29.50
2018-09-18T07:51:15.583Z,29.90
2018-09-18T07:53:43.607Z,30.40
2018-09-18T07:56:11.652Z,30.50
2018-09-18T07:58:39.688Z,30.50
2018-09-18T08:01:07.756Z,30.90
2018-09-18T08:03:35.892Z,31.40
2018-09-18T08:06:04.004Z,31.80
2018-09-18T08:08:32.034Z,31.90
2018-09-18T08:11:00.180Z,32.10
2018-09-18T08:13:28.112Z,32.30
2018-09-18T08:15:56.139Z,32.20
2018-09-18T08:18:24.198Z,32.40
2018-09-18T08:20:52.877Z,32.20
2018-09-18T08:23:20.922Z,32.40
2018-09-18T08:25:49.089Z,32.50
2018-09-18T08:28:17.136Z,32.90
2018-09-18T08:30:45.176Z,33.30
2018-09-18T08:33:13.224Z,33.30
2018-09-18T08:35:41.267Z,33.20
2018-09-18T08:38:09.495Z,33.10
2018-09-18T08:40:38.174Z,33.30
2018-09-18T08:43:06.262Z,33.50
2018-09-18T08:45:34.308Z,33.40
2018-09-18T08:48:02.381Z,33.50
2018-09-18T08:50:30.416Z,33.80
2018-09-18T08:52:58.496Z,33.80
2018-09-18T08:55:26.519Z,33.40
2018-09-18T08:57:54.559Z,33.50
2018-09-18T09:00:22.600Z,33.80
2018-09-18T09:02:50.722Z,33.80
2018-09-18T09:05:18.764Z,33.30
2018-09-18T09:07:47.037Z,32.90
2018-09-18T09:10:15.089Z,32.80
2018-09-18T09:12:43.332Z,33.10
2018-09-18T09:15:11.417Z,33.60
2018-09-18T09:17:39.403Z,33.60
2018-09-18T09:20:07.615Z,33.80
2018-09-18T09:22:35.688Z,34.30
2018-09-18T09:25:03.797Z,34.50
2018-09-18T09:27:31.876Z,34.60
2018-09-18T09:29:59.930Z,34.90
2018-09-18T09:32:28.023Z,35.00
2018-09-18T09:34:56.087Z,35.00
2018-09-18T09:37:24.149Z,35.00
2018-09-18T09:39:52.207Z,35.10
2018-09-18T09:42:20.255Z,35.10
2018-09-18T09:44:48.292Z,34.70
2018-09-18T09:47:16.341Z,34.20
2018-09-18T09:49:44.379Z,33.80
2018-09-18T09:52:12.451Z,33.80
2018-09-18T09:54:40.484Z,34.30
2018-09-18T09:57:08.531Z,34.50
2018-09-18T09:59:36.754Z,34.80
2018-09-18T10:02:10.307Z,34.90
2018-09-18T10:04:38.344Z,35.00
2018-09-18T10:07:06.392Z,35.30
2018-09-18T10:09:34.440Z,35.40
2018-09-18T10:12:02.492Z,35.50
2018-09-18T10:14:30.789Z,35.30
2018-09-18T10:16:58.848Z,35.30
2018-09-18T10:19:26.895Z,35.00
2018-09-18T10:21:55.032Z,34.80
2018-09-18T10:24:23.115Z,34.60
2018-09-18T10:26:51.227Z,34.40
2018-09-18T10:29:19.227Z,33.50
2018-09-18T10:31:47.272Z,32.80
2018-09-18T10:34:15.318Z,32.40
2018-09-18T10:36:43.479Z,32.20
2018-09-18T10:39:12.031Z,32.00
2018-09-18T10:41:40.418Z,31.80
2018-09-18T10:44:08.408Z,31.80
2018-09-18T10:46:36.885Z,31.60
2018-09-18T10:49:05.049Z,31.40
2018-09-18T10:51:33.092Z,31.30
2018-09-18T10:54:01.136Z,31.30
2018-09-18T10:56:29.231Z,31.20
2018-09-18T10:58:58.307Z,30.90
2018-09-18T11:01:26.377Z,30.60
2018-09-18T11:03:54.428Z,30.40
2018-09-18T11:06:22.559Z,30.30
2018-09-18T11:08:50.629Z,30.20
2018-09-18T11:11:18.680Z,30.20
2018-09-18T11:13:46.752Z,30.30
2018-09-18T11:16:15.300Z,30.40
2018-09-18T11:18:43.268Z,30.20
2018-09-18T11:21:11.381Z,30.10
2018-09-18T11:23:39.369Z,29.80
2018-09-18T11:26:07.459Z,29.80
2018-09-18T11:28:35.499Z,29.70
2018-09-18T11:31:03.574Z,29.60
2018-09-18T11:33:31.647Z,29.50
2018-09-18T11:35:59.682Z,29.30
2018-09-18T11:38:27.743Z,29.20
2018-09-18T11:40:56.392Z,29.30
2018-09-18T11:43:24.903Z,29.20
2018-09-18T11:45:53.052Z,29.10
2018-09-18T11:48:21.003Z,29.00
2018-09-18T11:50:49.088Z,29.00
2018-09-18T11:53:17.161Z,29.00
2018-09-18T11:55:45.213Z,29.00
2018-09-18T11:58:13.293Z,29.10
2018-09-18T12:00:41.359Z,29.20
2018-09-18T12:03:09.653Z,29.10
2018-09-18T12:05:37.933Z,29.20
2018-09-18T12:08:06.077Z,29.30
2018-09-18T12:10:34.205Z,29.20
2018-09-18T12:13:03.067Z,29.20
2018-09-18T12:15:31.236Z,29.10
2018-09-18T12:17:59.386Z,29.00
2018-09-18T12:20:27.651Z,29.00
2018-09-18T12:22:55.717Z,29.10
2018-09-18T12:25:24.643Z,29.10
2018-09-18T12:27:52.795Z,29.00
2018-09-18T12:30:20.872Z,29.00
2018-09-18T12:32:48.918Z,29.00
2018-09-18T12:35:16.995Z,29.10
2018-09-18T12:37:45.027Z,29.20
2018-09-18T12:40:14.809Z,29.10
2018-09-18T12:42:42.976Z,29.10
2018-09-18T12:45:11.024Z,29.10
2018-09-18T12:47:39.068Z,29.10
2018-09-18T12:50:07.471Z,29.10
2018-09-18T12:52:35.899Z,29.10
2018-09-18T12:55:03.980Z,29.20
2018-09-18T12:57:32.481Z,29.20
2018-09-18T13:00:00.451Z,29.20
2018-09-18T13:02:28.598Z,29.20
2018-09-18T13:04:56.612Z,29.20
2018-09-18T13:07:24.732Z,29.30
2018-09-18T13:09:52.759Z,29.30
2018-09-18T13:12:20.934Z,29.30
2018-09-18T13:14:49.122Z,29.20
2018-09-18T13:17:17.240Z,29.20
2018-09-18T13:19:45.436Z,29.20
2018-09-18T13:22:13.488Z,29.20
2018-09-18T13:24:41.596Z,29.30
2018-09-18T13:27:09.640Z,29.30
2018-09-18T13:29:37.976Z,29.30
2018-09-18T13:32:06.232Z,29.20
2018-09-18T13:34:34.380Z,29.20
2018-09-18T13:37:02.445Z,29.30
2018-09-18T13:39:30.531Z,29.30
2018-09-18T13:41:58.571Z,29.30
2018-09-18T13:44:26.687Z,29.30
2018-09-18T13:46:54.736Z,29.30
2018-09-18T13:49:22.783Z,29.30
2018-09-18T13:51:50.909Z,29.30
2018-09-18T13:54:18.922Z,29.30
2018-09-18T13:56:47.039Z,29.40
2018-09-18T13:59:15.090Z,29.40
2018-09-18T14:01:43.519Z,29.30
2018-09-18T14:04:11.434Z,29.30
2018-09-18T14:06:39.510Z,29.40
2018-09-18T14:09:08.444Z,29.40
2018-09-18T14:11:36.612Z,29.40
2018-09-18T14:14:04.674Z,29.40
2018-09-18T14:16:32.737Z,29.30
2018-09-18T14:19:00.821Z,29.30
2018-09-18T14:21:28.879Z,29.20
2018-09-18T14:23:57.021Z,29.30
2018-09-18T14:26:25.449Z,29.30
2018-09-18T14:28:53.555Z,29.30
2018-09-18T14:31:21.640Z,29.30
2018-09-18T14:33:49.676Z,29.30
2018-09-18T14:36:17.747Z,29.30
2018-09-18T14:38:45.791Z,29.20
2018-09-18T14:41:13.832Z,29.10
2018-09-18T14:43:41.855Z,29.10
2018-09-18T14:46:09.908Z,29.20
2018-09-18T14:48:37.945Z,29.30
2018-09-18T14:51:06.148Z,29.20
2018-09-18T14:53:34.183Z,29.20
2018-09-18T14:56:02.233Z,29.20
2018-09-18T14:58:30.402Z,29.20
2018-09-18T15:00:58.492Z,29.20
2018-09-18T15:03:26.548Z,29.10
2018-09-18T15:05:54.583Z,29.10
2018-09-18T15:08:22.834Z,29.10
2018-09-18T15:10:50.914Z,29.00
2018-09-18T15:13:18.955Z,29.00
2018-09-18T15:15:47.020Z,29.00
2018-09-18T15:18:15.066Z,28.90
2018-09-18T15:20:43.104Z,28.90
2018-09-18T15:23:11.295Z,28.90
2018-09-18T15:25:39.441Z,28.90
2018-09-18T15:28:07.491Z,28.90
2018-09-18T15:30:35.632Z,28.90
2018-09-18T15:33:03.716Z,28.80
2018-09-18T15:35:32.427Z,28.80
2018-09-18T15:38:00.563Z,28.80
2018-09-18T15:40:28.641Z,28.80
2018-09-18T15:42:56.744Z,28.70
2018-09-18T15:45:24.990Z,28.70
2018-09-18T15:47:53.040Z,28.70
2018-09-18T15:50:21.095Z,28.70
2018-09-18T15:52:49.129Z,28.70
2018-09-18T15:55:17.302Z,28.60
2018-09-18T15:57:45.491Z,28.60
2018-09-18T16:00:13.517Z,28.50
2018-09-18T16:02:41.574Z,28.50
2018-09-18T16:05:09.647Z,28.40
2018-09-18T16:07:37.679Z,28.40
2018-09-18T16:10:05.740Z,28.30
2018-09-18T16:12:33.948Z,28.20
2018-09-18T16:15:02.028Z,28.20
2018-09-18T16:17:30.179Z,28.10
2018-09-18T16:19:58.203Z,28.10
2018-09-18T16:22:26.339Z,28.00
2018-09-18T16:24:54.482Z,28.00
2018-09-18T16:27:22.613Z,27.90
2018-09-18T16:29:50.667Z,27.90
2018-09-18T16:32:18.741Z,27.90
2018-09-18T16:34:46.783Z,27.80
2018-09-18T16:37:14.847Z,27.70
2018-09-18T16:39:42.976Z,27.60
2018-09-18T16:42:11.143Z,27.50
2018-09-18T16:44:39.196Z,27.50
2018-09-18T16:47:07.295Z,27.40
2018-09-18T16:49:35.456Z,27.20
2018-09-18T16:52:03.515Z,27.10
2018-09-18T16:54:31.638Z,27.00
2018-09-18T16:56:59.654Z,26.90
2018-09-18T16:59:27.703Z,26.70
2018-09-18T17:01:55.771Z,26.60
2018-09-18T17:04:23.848Z,26.40
2018-09-18T17:06:51.940Z,26.20
2018-09-18T17:09:20.016Z,26.00
2018-09-18T17:11:48.089Z,25.80
2018-09-18T17:14:16.149Z,25.70
2018-09-18T17:16:44.194Z,25.50
2018-09-18T17:19:12.298Z,25.40
2018-09-18T17:21:40.363Z,25.20
2018-09-18T17:24:08.467Z,25.10
2018-09-18T17:26:36.517Z,25.00
2018-09-18T17:29:04.591Z,24.90
2018-09-18T17:31:32.624Z,24.80
2018-09-18T17:34:00.742Z,24.60
2018-09-18T17:36:28.818Z,24.50
2018-09-18T17:38:56.948Z,24.50
2018-09-18T17:41:25.957Z,24.40
2018-09-18T17:43:54.109Z,24.30
2018-09-18T17:46:22.289Z,24.20
2018-09-18T17:48:50.655Z,24.20
2018-09-18T17:51:18.720Z,24.10
2018-09-18T17:53:47.374Z,24.00
2018-09-18T17:56:15.490Z,24.00
2018-09-18T17:58:43.778Z,24.00
2018-09-18T18:01:11.819Z,24.00
2018-09-18T18:03:39.868Z,23.90
2018-09-18T18:06:07.913Z,23.90
2018-09-18T18:08:36.866Z,23.90
2018-09-18T18:11:05.165Z,23.80
2018-09-18T18:13:34.352Z,23.80
2018-09-18T18:16:02.389Z,23.80
2018-09-18T18:18:30.429Z,23.90
2018-09-18T18:20:58.579Z,23.90
2018-09-18T18:23:26.601Z,24.00
2018-09-18T18:25:54.685Z,24.00
2018-09-18T18:28:23.148Z,24.00
2018-09-18T18:30:51.191Z,24.10
2018-09-18T18:33:19.319Z,24.20
2018-09-18T18:35:47.287Z,24.20
2018-09-18T18:38:15.343Z,24.30
2018-09-18T18:40:43.429Z,24.40
2018-09-18T18:43:11.464Z,24.50
2018-09-18T18:45:39.519Z,24.50
2018-09-18T18:48:07.690Z,24.60
2018-09-18T18:50:35.617Z,24.70
2018-09-18T18:53:03.663Z,24.70
2018-09-18T18:55:31.792Z,24.70
2018-09-18T18:57:59.830Z,24.80
2018-09-18T19:00:27.888Z,24.80
2018-09-18T19:02:55.936Z,24.80
2018-09-18T19:05:23.971Z,24.70
2018-09-18T19:07:52.827Z,24.80
2018-09-18T19:10:20.883Z,24.70
2018-09-18T19:12:48.945Z,24.70
2018-09-18T19:15:17.053Z,24.70
2018-09-18T19:17:45.129Z,24.70
2018-09-18T19:20:13.181Z,24.70
2018-09-18T19:22:41.238Z,24.70
2018-09-18T19:25:09.275Z,24.70
2018-09-18T19:27:37.412Z,24.70
2018-09-18T19:30:05.623Z,24.60
2018-09-18T19:32:33.804Z,24.60
2018-09-18T19:35:01.868Z,24.60
2018-09-18T19:37:29.991Z,24.60
2018-09-18T19:39:58.045Z,24.50
2018-09-18T19:42:26.147Z,24.50
2018-09-18T19:44:54.195Z,24.50
2018-09-18T19:47:22.576Z,24.50
2018-09-18T19:49:50.654Z,24.40
2018-09-18T19:52:18.834Z,24.40
2018-09-18T19:54:46.787Z,24.40
2018-09-18T19:57:14.884Z,24.40
2018-09-18T19:59:43.031Z,24.40
2018-09-18T20:02:11.136Z,24.40
2018-09-18T20:04:39.200Z,24.40
2018-09-18T20:07:07.257Z,24.40
2018-09-18T20:09:35.354Z,24.40
2018-09-18T20:12:03.361Z,24.40
2018-09-18T20:14:31.403Z,24.40
2018-09-18T20:16:59.522Z,24.40
2018-09-18T20:19:27.572Z,24.40
2018-09-18T20:21:55.614Z,24.40
2018-09-18T20:24:23.659Z,24.40
2018-09-18T20:26:51.711Z,24.40
2018-09-18T20:29:19.759Z,24.40
2018-09-18T20:31:47.799Z,24.40
2018-09-18T20:34:15.851Z,24.30
2018-09-18T20:36:43.883Z,24.30
2018-09-18T20:39:12.369Z,24.30
2018-09-18T20:41:40.458Z,24.30
2018-09-18T20:44:08.452Z,24.40
2018-09-18T20:46:36.480Z,24.30
2018-09-18T20:51:33.091Z,24.30
2018-09-18T20:54:01.145Z,24.30
2018-09-18T20:56:29.178Z,24.30
2018-09-18T20:58:57.222Z,24.30
2018-09-18T21:01:25.251Z,24.20
2018-09-18T21:03:53.297Z,24.20
2018-09-18T21:06:21.343Z,24.20
2018-09-18T21:08:49.386Z,24.10
2018-09-18T21:11:17.419Z,24.10
2018-09-18T21:13:45.551Z,24.10
2018-09-18T21:16:13.580Z,24.10
2018-09-18T21:18:41.620Z,24.00
2018-09-18T21:21:09.661Z,24.00
2018-09-18T21:23:37.699Z,23.90
2018-09-18T21:26:08.786Z,23.90
2018-09-18T21:28:36.824Z,23.80
2018-09-18T21:31:04.951Z,23.80
2018-09-18T21:33:33.012Z,23.70
2018-09-18T21:36:01.259Z,23.70
2018-09-18T21:38:29.758Z,23.60
2018-09-18T21:40:57.797Z,23.60
2018-09-18T21:43:26.402Z,23.60
2018-09-18T21:45:54.427Z,23.60
2018-09-18T21:48:22.893Z,23.60
2018-09-18T21:50:50.939Z,23.60
2018-09-18T21:53:18.982Z,23.50
2018-09-18T21:55:47.160Z,23.50
2018-09-18T21:58:15.207Z,23.50
2018-09-18T22:00:43.503Z,23.50
2018-09-18T22:03:11.683Z,23.50
2018-09-18T22:05:39.708Z,23.40
2018-09-18T22:08:07.784Z,23.40
2018-09-18T22:10:35.819Z,23.30
2018-09-18T22:13:03.880Z,23.30
2018-09-18T22:15:32.541Z,23.30
2018-09-18T22:18:00.581Z,23.30
2018-09-18T22:20:28.625Z,23.20
2018-09-18T22:22:56.671Z,23.20
2018-09-18T22:25:25.134Z,23.20
2018-09-18T22:27:53.722Z,23.20
2018-09-18T22:30:22.655Z,23.10
2018-09-18T22:32:50.707Z,23.10
2018-09-18T22:35:18.745Z,23.10
2018-09-18T22:37:46.807Z,23.10
2018-09-18T22:40:14.861Z,23.10
2018-09-18T22:42:42.895Z,23.00
2018-09-18T22:45:10.947Z,23.00
2018-09-18T22:47:38.980Z,22.90
2018-09-18T22:50:07.375Z,22.90
2018-09-18T22:52:35.404Z,22.90
2018-09-18T22:55:03.456Z,23.00
2018-09-18T22:57:31.614Z,23.00
2018-09-18T22:59:59.580Z,23.10
2018-09-18T23:02:27.853Z,23.10
2018-09-18T23:04:55.920Z,23.20
2018-09-18T23:07:23.964Z,23.20
2018-09-18T23:09:52.017Z,23.20
2018-09-18T23:12:20.067Z,23.20
2018-09-18T23:14:48.119Z,23.10
2018-09-18T23:17:16.309Z,23.10
2018-09-18T23:19:44.339Z,23.00
2018-09-18T23:22:12.436Z,22.90
2018-09-18T23:24:40.460Z,22.90
2018-09-18T23:27:08.499Z,22.90
2018-09-18T23:29:36.555Z,22.80
2018-09-18T23:32:04.591Z,22.80
2018-09-18T23:34:32.637Z,22.70
2018-09-18T23:37:00.682Z,22.70
2018-09-18T23:39:28.736Z,22.70
2018-09-18T23:41:56.773Z,22.60
2018-09-18T23:44:24.825Z,22.50
2018-09-18T23:46:52.883Z,22.40
2018-09-18T23:49:20.939Z,22.40
2018-09-18T23:51:48.975Z,22.30
2018-09-18T23:54:17.022Z,22.20
2018-09-18T23:56:45.063Z,22.20
2018-09-18T23:59:13.128Z,22.10
